sensor_id;sensor_type;location;lat;lon;timestamp;P1;durP1;ratioP1;P2;durP2;ratioP2
54235;SDS011;40151;43.606;1.472;2023-02-03T00:00:31;6.00;;;3.67;;
54235;SDS011;40151;43.606;1.472;2023-02-03T00:02:57;6.18;;;3.63;;
54235;SDS011;40151;43.606;1.472;2023-02-03T00:05:22;6.70;;;3.80;;
54235;SDS011;40151;43.606;1.472;2023-02-03T00:07:48;6.40;;;3.80;;
54235;SDS011;40151;43.606;1.472;2023-02-03T00:10:14;6.68;;;3.65;;
54235;SDS011;40151;43.606;1.472;2023-02-03T00:12:45;6.13;;;3.80;;
54235;SDS011;40151;43.606;1.472;2023-02-03T00:15:14;7.70;;;3.67;;
54235;SDS011;40151;43.606;1.472;2023-02-03T00:17:41;5.70;;;3.72;;
54235;SDS011;40151;43.606;1.472;2023-02-03T00:20:07;5.55;;;3.40;;
54235;SDS011;40151;43.606;1.472;2023-02-03T00:22:34;6.38;;;3.58;;
54235;SDS011;40151;43.606;1.472;2023-02-03T00:24:59;6.10;;;3.78;;
54235;SDS011;40151;43.606;1.472;2023-02-03T00:27:25;6.07;;;3.95;;
54235;SDS011;40151;43.606;1.472;2023-02-03T00:29:50;7.80;;;4.03;;
54235;SDS011;40151;43.606;1.472;2023-02-03T00:32:17;6.07;;;3.88;;
54235;SDS011;40151;43.606;1.472;2023-02-03T00:34:43;7.32;;;3.90;;
54235;SDS011;40151;43.606;1.472;2023-02-03T00:37:10;6.25;;;3.80;;
54235;SDS011;40151;43.606;1.472;2023-02-03T00:39:37;6.28;;;3.50;;
54235;SDS011;40151;43.606;1.472;2023-02-03T00:42:03;6.53;;;3.60;;
54235;SDS011;40151;43.606;1.472;2023-02-03T00:44:30;7.18;;;3.70;;
54235;SDS011;40151;43.606;1.472;2023-02-03T00:46:55;7.22;;;4.07;;
54235;SDS011;40151;43.606;1.472;2023-02-03T00:49:20;5.80;;;3.75;;
54235;SDS011;40151;43.606;1.472;2023-02-03T00:51:46;5.80;;;3.53;;
54235;SDS011;40151;43.606;1.472;2023-02-03T00:54:11;6.88;;;4.05;;
54235;SDS011;40151;43.606;1.472;2023-02-03T00:56:38;5.68;;;3.38;;
54235;SDS011;40151;43.606;1.472;2023-02-03T00:59:03;6.80;;;3.80;;
54235;SDS011;40151;43.606;1.472;2023-02-03T01:01:29;7.13;;;3.92;;
54235;SDS011;40151;43.606;1.472;2023-02-03T01:03:55;7.80;;;4.15;;
54235;SDS011;40151;43.606;1.472;2023-02-03T01:06:21;6.53;;;3.53;;
54235;SDS011;40151;43.606;1.472;2023-02-03T01:08:47;7.15;;;4.28;;
54235;SDS011;40151;43.606;1.472;2023-02-03T01:11:14;6.53;;;3.65;;
54235;SDS011;40151;43.606;1.472;2023-02-03T01:13:43;6.35;;;4.05;;
54235;SDS011;40151;43.606;1.472;2023-02-03T01:16:10;6.68;;;3.83;;
54235;SDS011;40151;43.606;1.472;2023-02-03T01:18:37;7.10;;;4.32;;
54235;SDS011;40151;43.606;1.472;2023-02-03T01:21:04;5.97;;;3.80;;
54235;SDS011;40151;43.606;1.472;2023-02-03T01:23:34;7.10;;;4.25;;
54235;SDS011;40151;43.606;1.472;2023-02-03T01:26:04;6.72;;;3.83;;
54235;SDS011;40151;43.606;1.472;2023-02-03T01:28:31;5.90;;;3.97;;
54235;SDS011;40151;43.606;1.472;2023-02-03T01:30:57;6.18;;;3.78;;
54235;SDS011;40151;43.606;1.472;2023-02-03T01:33:36;5.65;;;3.53;;
54235;SDS011;40151;43.606;1.472;2023-02-03T01:36:05;6.25;;;3.47;;
54235;SDS011;40151;43.606;1.472;2023-02-03T01:38:33;6.78;;;4.07;;
54235;SDS011;40151;43.606;1.472;2023-02-03T01:40:58;5.88;;;3.53;;
54235;SDS011;40151;43.606;1.472;2023-02-03T01:43:30;7.68;;;4.05;;
54235;SDS011;40151;43.606;1.472;2023-02-03T01:45:58;7.35;;;3.75;;
54235;SDS011;40151;43.606;1.472;2023-02-03T01:48:26;7.57;;;3.70;;
54235;SDS011;40151;43.606;1.472;2023-02-03T01:50:52;7.85;;;4.20;;
54235;SDS011;40151;43.606;1.472;2023-02-03T01:53:18;7.63;;;4.25;;
54235;SDS011;40151;43.606;1.472;2023-02-03T01:55:45;7.38;;;4.60;;
54235;SDS011;40151;43.606;1.472;2023-02-03T01:58:15;5.50;;;3.53;;
54235;SDS011;40151;43.606;1.472;2023-02-03T02:00:45;6.30;;;3.80;;
54235;SDS011;40151;43.606;1.472;2023-02-03T02:03:12;6.57;;;4.10;;
54235;SDS011;40151;43.606;1.472;2023-02-03T02:05:55;6.10;;;3.72;;
54235;SDS011;40151;43.606;1.472;2023-02-03T02:08:26;6.65;;;3.75;;
54235;SDS011;40151;43.606;1.472;2023-02-03T02:10:53;6.28;;;3.90;;
54235;SDS011;40151;43.606;1.472;2023-02-03T02:13:20;6.00;;;3.97;;
54235;SDS011;40151;43.606;1.472;2023-02-03T02:16:02;7.32;;;3.75;;
54235;SDS011;40151;43.606;1.472;2023-02-03T02:19:08;6.35;;;3.75;;
54235;SDS011;40151;43.606;1.472;2023-02-03T02:38:19;6.47;;;4.00;;
54235;SDS011;40151;43.606;1.472;2023-02-03T02:43:33;6.25;;;3.75;;
54235;SDS011;40151;43.606;1.472;2023-02-03T02:48:39;6.72;;;4.10;;
54235;SDS011;40151;43.606;1.472;2023-02-03T02:51:08;6.45;;;3.67;;
54235;SDS011;40151;43.606;1.472;2023-02-03T02:53:57;6.50;;;3.88;;
54235;SDS011;40151;43.606;1.472;2023-02-03T02:56:26;6.75;;;4.20;;
54235;SDS011;40151;43.606;1.472;2023-02-03T02:58:56;6.15;;;3.80;;
54235;SDS011;40151;43.606;1.472;2023-02-03T03:01:24;6.57;;;3.83;;
54235;SDS011;40151;43.606;1.472;2023-02-03T03:03:49;7.80;;;3.97;;
54235;SDS011;40151;43.606;1.472;2023-02-03T03:09:04;6.75;;;4.15;;
54235;SDS011;40151;43.606;1.472;2023-02-03T03:11:39;7.23;;;4.30;;
54235;SDS011;40151;43.606;1.472;2023-02-03T03:14:09;5.53;;;3.30;;
54235;SDS011;40151;43.606;1.472;2023-02-03T03:16:36;6.47;;;3.83;;
54235;SDS011;40151;43.606;1.472;2023-02-03T03:19:09;6.70;;;4.07;;
54235;SDS011;40151;43.606;1.472;2023-02-03T03:21:44;5.88;;;3.83;;
54235;SDS011;40151;43.606;1.472;2023-02-03T03:24:27;6.35;;;3.67;;
54235;SDS011;40151;43.606;1.472;2023-02-03T03:26:58;5.93;;;3.97;;
54235;SDS011;40151;43.606;1.472;2023-02-03T03:29:32;6.05;;;3.42;;
54235;SDS011;40151;43.606;1.472;2023-02-03T03:32:11;6.95;;;3.95;;
54235;SDS011;40151;43.606;1.472;2023-02-03T03:34:37;7.10;;;4.05;;
54235;SDS011;40151;43.606;1.472;2023-02-03T03:39:54;5.82;;;3.67;;
54235;SDS011;40151;43.606;1.472;2023-02-03T03:44:56;6.78;;;4.05;;
54235;SDS011;40151;43.606;1.472;2023-02-03T03:47:37;7.32;;;3.97;;
54235;SDS011;40151;43.606;1.472;2023-02-03T03:50:09;7.60;;;3.83;;
54235;SDS011;40151;43.606;1.472;2023-02-03T03:52:39;7.45;;;3.97;;
54235;SDS011;40151;43.606;1.472;2023-02-03T03:55:08;6.65;;;3.72;;
54235;SDS011;40151;43.606;1.472;2023-02-03T03:57:45;7.63;;;4.40;;
54235;SDS011;40151;43.606;1.472;2023-02-03T04:00:14;6.70;;;3.97;;
54235;SDS011;40151;43.606;1.472;2023-02-03T04:02:44;7.25;;;3.88;;
54235;SDS011;40151;43.606;1.472;2023-02-03T04:05:15;6.53;;;3.63;;
54235;SDS011;40151;43.606;1.472;2023-02-03T04:07:43;6.22;;;3.67;;
54235;SDS011;40151;43.606;1.472;2023-02-03T04:10:22;6.80;;;4.00;;
54235;SDS011;40151;43.606;1.472;2023-02-03T04:12:54;6.05;;;3.88;;
54235;SDS011;40151;43.606;1.472;2023-02-03T04:15:19;6.03;;;3.58;;
54235;SDS011;40151;43.606;1.472;2023-02-03T04:17:45;6.15;;;3.75;;
54235;SDS011;40151;43.606;1.472;2023-02-03T04:20:11;6.80;;;4.20;;
54235;SDS011;40151;43.606;1.472;2023-02-03T04:22:37;6.40;;;3.85;;
54235;SDS011;40151;43.606;1.472;2023-02-03T04:25:03;5.30;;;3.25;;
54235;SDS011;40151;43.606;1.472;2023-02-03T04:27:28;6.43;;;3.90;;
54235;SDS011;40151;43.606;1.472;2023-02-03T04:29:55;6.43;;;3.58;;
54235;SDS011;40151;43.606;1.472;2023-02-03T04:32:22;5.95;;;3.97;;
54235;SDS011;40151;43.606;1.472;2023-02-03T04:34:47;7.13;;;3.90;;
54235;SDS011;40151;43.606;1.472;2023-02-03T04:37:13;6.22;;;3.78;;
54235;SDS011;40151;43.606;1.472;2023-02-03T04:39:38;5.57;;;3.83;;
54235;SDS011;40151;43.606;1.472;2023-02-03T04:42:03;6.70;;;3.63;;
54235;SDS011;40151;43.606;1.472;2023-02-03T04:44:29;6.88;;;3.90;;
54235;SDS011;40151;43.606;1.472;2023-02-03T04:46:54;7.65;;;3.38;;
54235;SDS011;40151;43.606;1.472;2023-02-03T04:49:20;6.18;;;3.53;;
54235;SDS011;40151;43.606;1.472;2023-02-03T04:51:47;5.65;;;3.33;;
54235;SDS011;40151;43.606;1.472;2023-02-03T04:54:13;5.95;;;3.75;;
54235;SDS011;40151;43.606;1.472;2023-02-03T04:56:39;5.60;;;3.63;;
54235;SDS011;40151;43.606;1.472;2023-02-03T04:59:04;5.30;;;3.40;;
54235;SDS011;40151;43.606;1.472;2023-02-03T05:01:30;6.15;;;3.75;;
54235;SDS011;40151;43.606;1.472;2023-02-03T05:03:56;7.20;;;3.88;;
54235;SDS011;40151;43.606;1.472;2023-02-03T05:06:25;5.22;;;3.33;;
54235;SDS011;40151;43.606;1.472;2023-02-03T05:08:53;5.70;;;3.20;;
54235;SDS011;40151;43.606;1.472;2023-02-03T05:11:18;6.63;;;3.40;;
54235;SDS011;40151;43.606;1.472;2023-02-03T05:13:44;6.45;;;3.63;;
54235;SDS011;40151;43.606;1.472;2023-02-03T05:16:10;5.15;;;3.05;;
54235;SDS011;40151;43.606;1.472;2023-02-03T05:18:35;7.13;;;3.60;;
54235;SDS011;40151;43.606;1.472;2023-02-03T05:21:00;6.15;;;3.15;;
54235;SDS011;40151;43.606;1.472;2023-02-03T05:23:26;5.35;;;3.38;;
54235;SDS011;40151;43.606;1.472;2023-02-03T05:25:51;5.40;;;3.17;;
54235;SDS011;40151;43.606;1.472;2023-02-03T05:28:17;6.60;;;3.22;;
54235;SDS011;40151;43.606;1.472;2023-02-03T05:30:42;6.03;;;3.72;;
54235;SDS011;40151;43.606;1.472;2023-02-03T05:33:08;6.07;;;3.40;;
54235;SDS011;40151;43.606;1.472;2023-02-03T05:35:33;6.38;;;3.65;;
54235;SDS011;40151;43.606;1.472;2023-02-03T05:37:59;5.68;;;3.15;;
54235;SDS011;40151;43.606;1.472;2023-02-03T05:40:25;6.78;;;3.92;;
54235;SDS011;40151;43.606;1.472;2023-02-03T05:43:09;8.10;;;3.83;;
54235;SDS011;40151;43.606;1.472;2023-02-03T05:45:35;6.55;;;3.47;;
54235;SDS011;40151;43.606;1.472;2023-02-03T05:48:01;6.28;;;3.75;;
54235;SDS011;40151;43.606;1.472;2023-02-03T05:50:30;5.78;;;3.42;;
54235;SDS011;40151;43.606;1.472;2023-02-03T05:52:59;6.65;;;3.45;;
54235;SDS011;40151;43.606;1.472;2023-02-03T05:55:25;6.78;;;3.47;;
54235;SDS011;40151;43.606;1.472;2023-02-03T05:57:51;5.97;;;3.75;;
54235;SDS011;40151;43.606;1.472;2023-02-03T06:00:17;6.90;;;4.03;;
54235;SDS011;40151;43.606;1.472;2023-02-03T06:02:43;6.25;;;3.22;;
54235;SDS011;40151;43.606;1.472;2023-02-03T06:05:09;6.30;;;3.78;;
54235;SDS011;40151;43.606;1.472;2023-02-03T06:07:34;6.93;;;3.38;;
54235;SDS011;40151;43.606;1.472;2023-02-03T06:10:00;6.20;;;3.55;;
54235;SDS011;40151;43.606;1.472;2023-02-03T06:12:25;6.25;;;3.40;;
54235;SDS011;40151;43.606;1.472;2023-02-03T06:14:50;6.53;;;3.70;;
54235;SDS011;40151;43.606;1.472;2023-02-03T06:17:16;6.82;;;3.83;;
54235;SDS011;40151;43.606;1.472;2023-02-03T06:19:41;6.28;;;3.75;;
54235;SDS011;40151;43.606;1.472;2023-02-03T06:22:07;5.80;;;3.90;;
54235;SDS011;40151;43.606;1.472;2023-02-03T06:24:32;6.20;;;3.97;;
54235;SDS011;40151;43.606;1.472;2023-02-03T06:26:58;7.38;;;3.90;;
54235;SDS011;40151;43.606;1.472;2023-02-03T06:29:23;7.28;;;3.78;;
54235;SDS011;40151;43.606;1.472;2023-02-03T06:31:48;6.05;;;3.70;;
54235;SDS011;40151;43.606;1.472;2023-02-03T06:34:14;5.75;;;3.40;;
54235;SDS011;40151;43.606;1.472;2023-02-03T06:36:39;6.32;;;3.53;;
54235;SDS011;40151;43.606;1.472;2023-02-03T06:39:05;5.70;;;3.90;;
54235;SDS011;40151;43.606;1.472;2023-02-03T06:41:30;6.32;;;3.45;;
54235;SDS011;40151;43.606;1.472;2023-02-03T06:43:56;7.47;;;3.80;;
54235;SDS011;40151;43.606;1.472;2023-02-03T06:46:22;6.05;;;3.42;;
54235;SDS011;40151;43.606;1.472;2023-02-03T06:48:52;6.43;;;3.90;;
54235;SDS011;40151;43.606;1.472;2023-02-03T06:51:17;5.80;;;3.38;;
54235;SDS011;40151;43.606;1.472;2023-02-03T06:53:42;7.18;;;4.15;;
54235;SDS011;40151;43.606;1.472;2023-02-03T06:56:08;7.35;;;3.90;;
54235;SDS011;40151;43.606;1.472;2023-02-03T06:58:33;6.00;;;3.50;;
54235;SDS011;40151;43.606;1.472;2023-02-03T07:00:58;7.45;;;3.60;;
54235;SDS011;40151;43.606;1.472;2023-02-03T07:03:24;7.90;;;4.38;;
54235;SDS011;40151;43.606;1.472;2023-02-03T07:05:49;5.97;;;3.88;;
54235;SDS011;40151;43.606;1.472;2023-02-03T07:08:15;6.22;;;3.33;;
54235;SDS011;40151;43.606;1.472;2023-02-03T07:10:40;6.25;;;3.38;;
54235;SDS011;40151;43.606;1.472;2023-02-03T07:13:06;6.32;;;3.40;;
54235;SDS011;40151;43.606;1.472;2023-02-03T07:15:32;6.65;;;3.15;;
54235;SDS011;40151;43.606;1.472;2023-02-03T07:17:57;5.47;;;3.25;;
54235;SDS011;40151;43.606;1.472;2023-02-03T07:20:23;5.88;;;3.22;;
54235;SDS011;40151;43.606;1.472;2023-02-03T07:22:52;7.18;;;3.60;;
54235;SDS011;40151;43.606;1.472;2023-02-03T07:25:22;5.40;;;3.17;;
54235;SDS011;40151;43.606;1.472;2023-02-03T07:27:48;5.18;;;3.20;;
54235;SDS011;40151;43.606;1.472;2023-02-03T07:30:14;5.40;;;3.83;;
54235;SDS011;40151;43.606;1.472;2023-02-03T07:32:39;4.97;;;3.22;;
54235;SDS011;40151;43.606;1.472;2023-02-03T07:35:05;5.72;;;3.20;;
54235;SDS011;40151;43.606;1.472;2023-02-03T07:37:30;5.97;;;3.10;;
54235;SDS011;40151;43.606;1.472;2023-02-03T07:39:56;6.22;;;3.65;;
54235;SDS011;40151;43.606;1.472;2023-02-03T07:42:21;5.18;;;3.13;;
54235;SDS011;40151;43.606;1.472;2023-02-03T07:44:47;5.82;;;3.38;;
54235;SDS011;40151;43.606;1.472;2023-02-03T07:47:12;5.68;;;3.20;;
54235;SDS011;40151;43.606;1.472;2023-02-03T07:49:38;6.57;;;3.22;;
54235;SDS011;40151;43.606;1.472;2023-02-03T07:52:03;6.13;;;3.10;;
54235;SDS011;40151;43.606;1.472;2023-02-03T07:54:28;6.00;;;3.30;;
54235;SDS011;40151;43.606;1.472;2023-02-03T07:56:54;5.75;;;3.35;;
54235;SDS011;40151;43.606;1.472;2023-02-03T07:59:19;5.18;;;3.20;;
54235;SDS011;40151;43.606;1.472;2023-02-03T08:01:45;5.82;;;3.28;;
54235;SDS011;40151;43.606;1.472;2023-02-03T08:04:10;7.57;;;3.60;;
54235;SDS011;40151;43.606;1.472;2023-02-03T08:06:40;6.82;;;3.88;;
54235;SDS011;40151;43.606;1.472;2023-02-03T08:09:06;5.25;;;3.15;;
54235;SDS011;40151;43.606;1.472;2023-02-03T08:11:32;5.80;;;3.40;;
54235;SDS011;40151;43.606;1.472;2023-02-03T08:13:57;8.07;;;3.78;;
54235;SDS011;40151;43.606;1.472;2023-02-03T08:16:23;5.93;;;3.17;;
54235;SDS011;40151;43.606;1.472;2023-02-03T08:18:48;6.38;;;3.17;;
54235;SDS011;40151;43.606;1.472;2023-02-03T08:21:13;5.13;;;2.95;;
54235;SDS011;40151;43.606;1.472;2023-02-03T08:23:42;5.97;;;3.50;;
54235;SDS011;40151;43.606;1.472;2023-02-03T08:26:07;5.85;;;3.13;;
54235;SDS011;40151;43.606;1.472;2023-02-03T08:28:33;5.88;;;3.10;;
54235;SDS011;40151;43.606;1.472;2023-02-03T08:30:58;5.88;;;3.42;;
54235;SDS011;40151;43.606;1.472;2023-02-03T08:33:23;6.38;;;3.15;;
54235;SDS011;40151;43.606;1.472;2023-02-03T08:35:49;5.85;;;3.28;;
54235;SDS011;40151;43.606;1.472;2023-02-03T08:38:16;6.15;;;3.50;;
54235;SDS011;40151;43.606;1.472;2023-02-03T08:40:41;5.15;;;3.03;;
54235;SDS011;40151;43.606;1.472;2023-02-03T08:43:07;5.22;;;3.15;;
54235;SDS011;40151;43.606;1.472;2023-02-03T08:45:32;5.93;;;3.30;;
54235;SDS011;40151;43.606;1.472;2023-02-03T08:47:58;4.95;;;3.05;;
54235;SDS011;40151;43.606;1.472;2023-02-03T08:50:24;5.05;;;3.13;;
54235;SDS011;40151;43.606;1.472;2023-02-03T08:52:49;5.68;;;2.78;;
54235;SDS011;40151;43.606;1.472;2023-02-03T08:55:14;5.50;;;3.00;;
54235;SDS011;40151;43.606;1.472;2023-02-03T08:57:40;6.30;;;3.38;;
54235;SDS011;40151;43.606;1.472;2023-02-03T09:00:06;6.75;;;3.28;;
54235;SDS011;40151;43.606;1.472;2023-02-03T09:02:33;5.30;;;3.10;;
54235;SDS011;40151;43.606;1.472;2023-02-03T09:04:58;5.95;;;3.20;;
54235;SDS011;40151;43.606;1.472;2023-02-03T09:07:24;5.47;;;3.00;;
54235;SDS011;40151;43.606;1.472;2023-02-03T09:09:50;5.07;;;3.10;;
54235;SDS011;40151;43.606;1.472;2023-02-03T09:12:15;5.55;;;3.47;;
54235;SDS011;40151;43.606;1.472;2023-02-03T09:14:41;6.13;;;3.50;;
54235;SDS011;40151;43.606;1.472;2023-02-03T09:17:07;5.75;;;3.28;;
54235;SDS011;40151;43.606;1.472;2023-02-03T09:19:33;6.38;;;3.47;;
54235;SDS011;40151;43.606;1.472;2023-02-03T09:21:59;5.20;;;3.20;;
54235;SDS011;40151;43.606;1.472;2023-02-03T09:24:24;5.88;;;3.35;;
54235;SDS011;40151;43.606;1.472;2023-02-03T09:26:50;4.72;;;3.03;;
54235;SDS011;40151;43.606;1.472;2023-02-03T09:29:16;5.50;;;3.00;;
54235;SDS011;40151;43.606;1.472;2023-02-03T09:31:41;6.13;;;3.17;;
54235;SDS011;40151;43.606;1.472;2023-02-03T09:34:07;8.23;;;3.47;;
54235;SDS011;40151;43.606;1.472;2023-02-03T09:36:33;5.57;;;3.40;;
54235;SDS011;40151;43.606;1.472;2023-02-03T09:38:59;6.07;;;3.42;;
54235;SDS011;40151;43.606;1.472;2023-02-03T09:46:21;5.43;;;3.15;;
54235;SDS011;40151;43.606;1.472;2023-02-03T09:49:02;5.32;;;3.15;;
54235;SDS011;40151;43.606;1.472;2023-02-03T09:51:36;6.25;;;3.63;;
54235;SDS011;40151;43.606;1.472;2023-02-03T09:57:19;6.28;;;3.65;;
54235;SDS011;40151;43.606;1.472;2023-02-03T09:59:47;5.57;;;3.35;;
54235;SDS011;40151;43.606;1.472;2023-02-03T10:02:32;5.60;;;3.40;;
54235;SDS011;40151;43.606;1.472;2023-02-03T10:05:17;6.03;;;3.17;;
54235;SDS011;40151;43.606;1.472;2023-02-03T10:18:36;7.00;;;3.72;;
54235;SDS011;40151;43.606;1.472;2023-02-03T10:21:15;6.72;;;3.60;;
54235;SDS011;40151;43.606;1.472;2023-02-03T10:23:45;5.45;;;3.10;;
54235;SDS011;40151;43.606;1.472;2023-02-03T10:26:15;6.60;;;3.38;;
54235;SDS011;40151;43.606;1.472;2023-02-03T10:28:53;5.68;;;3.45;;
54235;SDS011;40151;43.606;1.472;2023-02-03T10:31:22;5.70;;;3.20;;
54235;SDS011;40151;43.606;1.472;2023-02-03T10:36:27;5.80;;;3.53;;
54235;SDS011;40151;43.606;1.472;2023-02-03T10:41:43;5.72;;;3.38;;
54235;SDS011;40151;43.606;1.472;2023-02-03T10:44:09;5.18;;;3.33;;
54235;SDS011;40151;43.606;1.472;2023-02-03T10:46:38;5.18;;;3.38;;
54235;SDS011;40151;43.606;1.472;2023-02-03T10:49:06;4.85;;;3.03;;
54235;SDS011;40151;43.606;1.472;2023-02-03T10:51:35;5.13;;;3.20;;
54235;SDS011;40151;43.606;1.472;2023-02-03T10:54:04;5.20;;;2.80;;
54235;SDS011;40151;43.606;1.472;2023-02-03T10:56:49;6.57;;;3.28;;
54235;SDS011;40151;43.606;1.472;2023-02-03T10:59:24;4.55;;;2.80;;
54235;SDS011;40151;43.606;1.472;2023-02-03T11:01:53;6.10;;;3.08;;
54235;SDS011;40151;43.606;1.472;2023-02-03T11:04:23;5.40;;;2.92;;
54235;SDS011;40151;43.606;1.472;2023-02-03T11:07:04;4.32;;;2.92;;
54235;SDS011;40151;43.606;1.472;2023-02-03T11:09:36;5.28;;;2.95;;
54235;SDS011;40151;43.606;1.472;2023-02-03T11:14:42;6.03;;;3.05;;
54235;SDS011;40151;43.606;1.472;2023-02-03T11:19:44;5.00;;;2.83;;
54235;SDS011;40151;43.606;1.472;2023-02-03T11:22:13;5.15;;;3.00;;
54235;SDS011;40151;43.606;1.472;2023-02-03T11:24:52;6.00;;;2.80;;
54235;SDS011;40151;43.606;1.472;2023-02-03T11:27:18;6.10;;;3.22;;
54235;SDS011;40151;43.606;1.472;2023-02-03T11:29:47;5.40;;;3.13;;
54235;SDS011;40151;43.606;1.472;2023-02-03T11:32:19;5.82;;;3.00;;
54235;SDS011;40151;43.606;1.472;2023-02-03T11:34:57;6.15;;;3.17;;
54235;SDS011;40151;43.606;1.472;2023-02-03T11:37:40;5.60;;;3.22;;
54235;SDS011;40151;43.606;1.472;2023-02-03T11:42:36;5.18;;;2.95;;
54235;SDS011;40151;43.606;1.472;2023-02-03T11:47:47;5.15;;;3.00;;
54235;SDS011;40151;43.606;1.472;2023-02-03T11:53:28;4.47;;;2.88;;
54235;SDS011;40151;43.606;1.472;2023-02-03T12:01:16;6.80;;;3.30;;
54235;SDS011;40151;43.606;1.472;2023-02-03T12:09:51;6.18;;;3.33;;
54235;SDS011;40151;43.606;1.472;2023-02-03T12:26:22;7.57;;;3.35;;
54235;SDS011;40151;43.606;1.472;2023-02-03T12:29:10;6.35;;;3.53;;
54235;SDS011;40151;43.606;1.472;2023-02-03T12:36:56;5.63;;;3.10;;
54235;SDS011;40151;43.606;1.472;2023-02-03T12:39:35;7.25;;;3.17;;
54235;SDS011;40151;43.606;1.472;2023-02-03T12:42:12;6.60;;;3.47;;
54235;SDS011;40151;43.606;1.472;2023-02-03T12:47:20;6.38;;;3.50;;
54235;SDS011;40151;43.606;1.472;2023-02-03T12:49:49;6.05;;;3.05;;
54235;SDS011;40151;43.606;1.472;2023-02-03T12:58:17;6.30;;;3.27;;
54235;SDS011;40151;43.606;1.472;2023-02-03T13:01:07;6.38;;;3.33;;
54235;SDS011;40151;43.606;1.472;2023-02-03T13:08:53;6.43;;;3.30;;
54235;SDS011;40151;43.606;1.472;2023-02-03T13:11:36;8.30;;;3.85;;
54235;SDS011;40151;43.606;1.472;2023-02-03T13:17:16;6.43;;;3.55;;
54235;SDS011;40151;43.606;1.472;2023-02-03T13:19:46;6.85;;;3.88;;
54235;SDS011;40151;43.606;1.472;2023-02-03T13:22:14;6.10;;;3.38;;
54235;SDS011;40151;43.606;1.472;2023-02-03T13:24:45;6.18;;;3.15;;
54235;SDS011;40151;43.606;1.472;2023-02-03T13:30:26;7.88;;;3.28;;
54235;SDS011;40151;43.606;1.472;2023-02-03T13:35:56;6.50;;;3.58;;
54235;SDS011;40151;43.606;1.472;2023-02-03T13:38:44;5.97;;;3.45;;
54235;SDS011;40151;43.606;1.472;2023-02-03T13:41:45;6.70;;;3.75;;
54235;SDS011;40151;43.606;1.472;2023-02-03T13:44:15;6.38;;;3.53;;
54235;SDS011;40151;43.606;1.472;2023-02-03T13:46:45;5.50;;;3.03;;
54235;SDS011;40151;43.606;1.472;2023-02-03T13:49:48;6.00;;;3.42;;
54235;SDS011;40151;43.606;1.472;2023-02-03T13:54:54;5.82;;;3.28;;
54235;SDS011;40151;43.606;1.472;2023-02-03T13:57:21;6.72;;;3.80;;
54235;SDS011;40151;43.606;1.472;2023-02-03T13:59:55;6.07;;;3.35;;
54235;SDS011;40151;43.606;1.472;2023-02-03T14:22:57;5.57;;;3.30;;
54235;SDS011;40151;43.606;1.472;2023-02-03T14:25:31;7.25;;;3.03;;
54235;SDS011;40151;43.606;1.472;2023-02-03T14:28:19;5.43;;;2.97;;
54235;SDS011;40151;43.606;1.472;2023-02-03T14:36:29;8.15;;;3.40;;
54235;SDS011;40151;43.606;1.472;2023-02-03T14:47:48;5.80;;;3.00;;
54235;SDS011;40151;43.606;1.472;2023-02-03T15:01:23;6.05;;;2.83;;
54235;SDS011;40151;43.606;1.472;2023-02-03T15:06:50;5.05;;;2.70;;
54235;SDS011;40151;43.606;1.472;2023-02-03T15:12:00;4.93;;;2.55;;
54235;SDS011;40151;43.606;1.472;2023-02-03T15:14:28;6.03;;;3.22;;
54235;SDS011;40151;43.606;1.472;2023-02-03T15:17:10;6.05;;;3.25;;
54235;SDS011;40151;43.606;1.472;2023-02-03T15:19:38;6.40;;;2.80;;
54235;SDS011;40151;43.606;1.472;2023-02-03T15:22:27;5.93;;;2.90;;
54235;SDS011;40151;43.606;1.472;2023-02-03T15:24:56;5.55;;;2.78;;
54235;SDS011;40151;43.606;1.472;2023-02-03T15:27:24;6.03;;;3.10;;
54235;SDS011;40151;43.606;1.472;2023-02-03T15:29:52;6.32;;;3.00;;
54235;SDS011;40151;43.606;1.472;2023-02-03T15:34:44;5.88;;;2.80;;
54235;SDS011;40151;43.606;1.472;2023-02-03T15:37:16;5.75;;;3.13;;
54235;SDS011;40151;43.606;1.472;2023-02-03T15:40:27;6.35;;;3.22;;
54235;SDS011;40151;43.606;1.472;2023-02-03T15:42:56;6.38;;;3.17;;
54235;SDS011;40151;43.606;1.472;2023-02-03T15:45:32;6.88;;;3.15;;
54235;SDS011;40151;43.606;1.472;2023-02-03T15:51:10;6.88;;;3.67;;
54235;SDS011;40151;43.606;1.472;2023-02-03T15:53:58;4.78;;;3.13;;
54235;SDS011;40151;43.606;1.472;2023-02-03T15:59:18;5.55;;;2.80;;
54235;SDS011;40151;43.606;1.472;2023-02-03T16:01:48;5.15;;;3.05;;
54235;SDS011;40151;43.606;1.472;2023-02-03T16:04:13;5.07;;;2.85;;
54235;SDS011;40151;43.606;1.472;2023-02-03T16:06:39;5.72;;;2.45;;
54235;SDS011;40151;43.606;1.472;2023-02-03T16:14:48;6.45;;;2.78;;
54235;SDS011;40151;43.606;1.472;2023-02-03T16:17:25;6.25;;;2.88;;
54235;SDS011;40151;43.606;1.472;2023-02-03T16:20:18;6.82;;;3.22;;
54235;SDS011;40151;43.606;1.472;2023-02-03T16:22:59;5.20;;;2.53;;
54235;SDS011;40151;43.606;1.472;2023-02-03T16:25:31;6.25;;;2.78;;
54235;SDS011;40151;43.606;1.472;2023-02-03T16:30:54;5.25;;;2.95;;
54235;SDS011;40151;43.606;1.472;2023-02-03T16:33:45;6.00;;;2.80;;
54235;SDS011;40151;43.606;1.472;2023-02-03T16:36:30;5.65;;;2.55;;
54235;SDS011;40151;43.606;1.472;2023-02-03T16:39:14;4.75;;;2.20;;
54235;SDS011;40151;43.606;1.472;2023-02-03T16:41:58;4.70;;;2.70;;
54235;SDS011;40151;43.606;1.472;2023-02-03T16:44:44;4.97;;;2.45;;
54235;SDS011;40151;43.606;1.472;2023-02-03T16:47:29;5.63;;;2.42;;
54235;SDS011;40151;43.606;1.472;2023-02-03T16:50:15;5.20;;;2.60;;
54235;SDS011;40151;43.606;1.472;2023-02-03T16:53:04;6.93;;;2.92;;
54235;SDS011;40151;43.606;1.472;2023-02-03T16:55:31;5.72;;;2.65;;
54235;SDS011;40151;43.606;1.472;2023-02-03T16:57:56;5.57;;;2.78;;
54235;SDS011;40151;43.606;1.472;2023-02-03T17:00:21;4.13;;;2.50;;
54235;SDS011;40151;43.606;1.472;2023-02-03T17:02:48;4.32;;;2.80;;
54235;SDS011;40151;43.606;1.472;2023-02-03T17:05:14;3.20;;;2.10;;
54235;SDS011;40151;43.606;1.472;2023-02-03T17:07:40;6.28;;;2.70;;
54235;SDS011;40151;43.606;1.472;2023-02-03T17:10:06;4.78;;;2.78;;
54235;SDS011;40151;43.606;1.472;2023-02-03T17:12:32;4.97;;;2.47;;
54235;SDS011;40151;43.606;1.472;2023-02-03T17:14:58;3.67;;;2.25;;
54235;SDS011;40151;43.606;1.472;2023-02-03T17:17:23;4.55;;;2.33;;
54235;SDS011;40151;43.606;1.472;2023-02-03T17:19:49;4.90;;;2.72;;
54235;SDS011;40151;43.606;1.472;2023-02-03T17:22:15;5.38;;;2.92;;
54235;SDS011;40151;43.606;1.472;2023-02-03T17:24:40;6.55;;;2.70;;
54235;SDS011;40151;43.606;1.472;2023-02-03T17:27:05;4.22;;;2.28;;
54235;SDS011;40151;43.606;1.472;2023-02-03T17:29:31;4.43;;;2.50;;
54235;SDS011;40151;43.606;1.472;2023-02-03T17:31:56;4.10;;;2.15;;
54235;SDS011;40151;43.606;1.472;2023-02-03T17:34:22;4.32;;;2.40;;
54235;SDS011;40151;43.606;1.472;2023-02-03T17:36:47;4.97;;;2.50;;
54235;SDS011;40151;43.606;1.472;2023-02-03T17:39:13;4.43;;;2.30;;
54235;SDS011;40151;43.606;1.472;2023-02-03T17:41:38;6.13;;;2.78;;
54235;SDS011;40151;43.606;1.472;2023-02-03T17:44:04;5.53;;;2.50;;
54235;SDS011;40151;43.606;1.472;2023-02-03T17:46:29;5.15;;;2.42;;
54235;SDS011;40151;43.606;1.472;2023-02-03T17:48:55;5.38;;;2.85;;
54235;SDS011;40151;43.606;1.472;2023-02-03T17:51:22;4.50;;;2.35;;
54235;SDS011;40151;43.606;1.472;2023-02-03T17:53:54;5.32;;;2.80;;
54235;SDS011;40151;43.606;1.472;2023-02-03T17:56:21;4.32;;;2.50;;
54235;SDS011;40151;43.606;1.472;2023-02-03T17:58:53;5.88;;;3.22;;
54235;SDS011;40151;43.606;1.472;2023-02-03T18:01:19;5.43;;;2.92;;
54235;SDS011;40151;43.606;1.472;2023-02-03T18:03:49;9.57;;;4.13;;
54235;SDS011;40151;43.606;1.472;2023-02-03T18:06:16;8.48;;;3.90;;
54235;SDS011;40151;43.606;1.472;2023-02-03T18:08:43;11.52;;;4.05;;
54235;SDS011;40151;43.606;1.472;2023-02-03T18:11:10;8.93;;;4.13;;
54235;SDS011;40151;43.606;1.472;2023-02-03T18:13:37;12.55;;;5.78;;